sensor_id;sensor_type;location;lat;lon;timestamp;pressure;altitude;pressure_sealevel;temperature
16956;BMP180;8594;52.052;8.354;2024-01-30T00:01:21;101783.00;;;11.70
16956;BMP180;8594;52.052;8.354;2024-01-30T00:03:47;101786.00;;;11.80
16956;BMP180;8594;52.052;8.354;2024-01-30T00:06:18;101793.00;;;11.40
16956;BMP180;8594;52.052;8.354;2024-01-30T00:08:46;101780.00;;;11.60
16956;BMP180;8594;52.052;8.354;2024-01-30T00:11:14;101782.00;;;11.30
16956;BMP180;8594;52.052;8.354;2024-01-30T00:13:41;101780.00;;;11.50
16956;BMP180;8594;52.052;8.354;2024-01-30T00:16:20;101779.00;;;11.40
16956;BMP180;8594;52.052;8.354;2024-01-30T00:18:47;101783.00;;;11.30
16956;BMP180;8594;52.052;8.354;2024-01-30T00:21:13;101783.00;;;11.30
16956;BMP180;8594;52.052;8.354;2024-01-30T00:23:40;101774.00;;;11.30
16956;BMP180;8594;52.052;8.354;2024-01-30T00:26:07;101777.00;;;11.20
16956;BMP180;8594;52.052;8.354;2024-01-30T00:28:34;101779.00;;;11.40
16956;BMP180;8594;52.052;8.354;2024-01-30T00:31:01;101781.00;;;11.50
16956;BMP180;8594;52.052;8.354;2024-01-30T00:33:29;101787.00;;;11.10
16956;BMP180;8594;52.052;8.354;2024-01-30T00:35:56;101785.00;;;11.50
16956;BMP180;8594;52.052;8.354;2024-01-30T00:38:22;101790.00;;;11.70
16956;BMP180;8594;52.052;8.354;2024-01-30T00:40:49;101788.00;;;11.40
16956;BMP180;8594;52.052;8.354;2024-01-30T00:43:16;101777.00;;;11.30
16956;BMP180;8594;52.052;8.354;2024-01-30T00:45:43;101783.00;;;11.40
16956;BMP180;8594;52.052;8.354;2024-01-30T00:48:10;101777.00;;;11.10
16956;BMP180;8594;52.052;8.354;2024-01-30T00:50:38;101776.00;;;11.30
16956;BMP180;8594;52.052;8.354;2024-01-30T00:53:05;101770.00;;;11.30
16956;BMP180;8594;52.052;8.354;2024-01-30T00:55:32;101774.00;;;11.30
16956;BMP180;8594;52.052;8.354;2024-01-30T00:57:58;101779.00;;;11.40
16956;BMP180;8594;52.052;8.354;2024-01-30T01:00:25;101774.00;;;11.30
16956;BMP180;8594;52.052;8.354;2024-01-30T01:02:54;101766.00;;;11.20
16956;BMP180;8594;52.052;8.354;2024-01-30T01:05:21;101765.00;;;11.40
16956;BMP180;8594;52.052;8.354;2024-01-30T01:07:49;101774.00;;;11.60
16956;BMP180;8594;52.052;8.354;2024-01-30T01:10:17;101764.00;;;11.30
16956;BMP180;8594;52.052;8.354;2024-01-30T01:12:44;101766.00;;;11.60
16956;BMP180;8594;52.052;8.354;2024-01-30T01:15:11;101774.00;;;11.70
16956;BMP180;8594;52.052;8.354;2024-01-30T01:17:38;101763.00;;;11.70
16956;BMP180;8594;52.052;8.354;2024-01-30T01:20:07;101762.00;;;11.50
16956;BMP180;8594;52.052;8.354;2024-01-30T01:22:36;101760.00;;;11.50
16956;BMP180;8594;52.052;8.354;2024-01-30T01:25:06;101760.00;;;11.40
16956;BMP180;8594;52.052;8.354;2024-01-30T01:27:33;101760.00;;;11.50
16956;BMP180;8594;52.052;8.354;2024-01-30T01:30:08;101751.00;;;11.00
16956;BMP180;8594;52.052;8.354;2024-01-30T01:32:36;101761.00;;;10.90
16956;BMP180;8594;52.052;8.354;2024-01-30T01:35:04;101755.00;;;11.20
16956;BMP180;8594;52.052;8.354;2024-01-30T01:37:31;101756.00;;;11.00
16956;BMP180;8594;52.052;8.354;2024-01-30T01:39:59;101751.00;;;10.90
16956;BMP180;8594;52.052;8.354;2024-01-30T01:42:27;101748.00;;;10.90
16956;BMP180;8594;52.052;8.354;2024-01-30T01:44:54;101746.00;;;11.30
16956;BMP180;8594;52.052;8.354;2024-01-30T01:47:21;101753.00;;;11.30
16956;BMP180;8594;52.052;8.354;2024-01-30T01:49:48;101747.00;;;11.20
16956;BMP180;8594;52.052;8.354;2024-01-30T01:52:15;101746.00;;;10.90
16956;BMP180;8594;52.052;8.354;2024-01-30T01:54:42;101742.00;;;11.10
16956;BMP180;8594;52.052;8.354;2024-01-30T01:57:09;101748.00;;;11.30
16956;BMP180;8594;52.052;8.354;2024-01-30T01:59:37;101742.00;;;10.80
16956;BMP180;8594;52.052;8.354;2024-01-30T02:02:07;101738.00;;;10.70
16956;BMP180;8594;52.052;8.354;2024-01-30T02:04:35;101746.00;;;11.00
16956;BMP180;8594;52.052;8.354;2024-01-30T02:07:02;101739.00;;;11.00
16956;BMP180;8594;52.052;8.354;2024-01-30T02:09:29;101739.00;;;11.30
16956;BMP180;8594;52.052;8.354;2024-01-30T02:11:55;101732.00;;;11.30
16956;BMP180;8594;52.052;8.354;2024-01-30T02:14:22;101732.00;;;11.10
16956;BMP180;8594;52.052;8.354;2024-01-30T02:16:50;101732.00;;;10.80
16956;BMP180;8594;52.052;8.354;2024-01-30T02:19:17;101733.00;;;11.00
16956;BMP180;8594;52.052;8.354;2024-01-30T02:21:46;101732.00;;;10.80
16956;BMP180;8594;52.052;8.354;2024-01-30T02:24:13;101728.00;;;11.10
16956;BMP180;8594;52.052;8.354;2024-01-30T02:26:40;101720.00;;;11.30
16956;BMP180;8594;52.052;8.354;2024-01-30T02:29:07;101725.00;;;11.20
16956;BMP180;8594;52.052;8.354;2024-01-30T02:31:33;101721.00;;;11.30
16956;BMP180;8594;52.052;8.354;2024-01-30T02:34:00;101719.00;;;11.20
16956;BMP180;8594;52.052;8.354;2024-01-30T02:36:27;101711.00;;;11.30
16956;BMP180;8594;52.052;8.354;2024-01-30T02:38:55;101707.00;;;11.30
16956;BMP180;8594;52.052;8.354;2024-01-30T02:41:21;101711.00;;;11.40
16956;BMP180;8594;52.052;8.354;2024-01-30T02:43:48;101715.00;;;11.40
16956;BMP180;8594;52.052;8.354;2024-01-30T02:46:15;101714.00;;;11.30
16956;BMP180;8594;52.052;8.354;2024-01-30T02:48:41;101703.00;;;11.30
16956;BMP180;8594;52.052;8.354;2024-01-30T02:51:08;101704.00;;;11.30
16956;BMP180;8594;52.052;8.354;2024-01-30T02:53:35;101702.00;;;11.10
16956;BMP180;8594;52.052;8.354;2024-01-30T02:56:04;101689.00;;;10.80
16956;BMP180;8594;52.052;8.354;2024-01-30T02:58:31;101695.00;;;11.00
16956;BMP180;8594;52.052;8.354;2024-01-30T03:00:58;101694.00;;;11.00
16956;BMP180;8594;52.052;8.354;2024-01-30T03:03:25;101682.00;;;10.70
16956;BMP180;8594;52.052;8.354;2024-01-30T03:05:51;101690.00;;;10.90
16956;BMP180;8594;52.052;8.354;2024-01-30T03:08:18;101684.00;;;10.90
16956;BMP180;8594;52.052;8.354;2024-01-30T03:10:45;101688.00;;;10.90
16956;BMP180;8594;52.052;8.354;2024-01-30T03:13:13;101682.00;;;10.80
16956;BMP180;8594;52.052;8.354;2024-01-30T03:15:40;101671.00;;;10.90
16956;BMP180;8594;52.052;8.354;2024-01-30T03:18:07;101678.00;;;10.80
16956;BMP180;8594;52.052;8.354;2024-01-30T03:20:34;101668.00;;;10.90
16956;BMP180;8594;52.052;8.354;2024-01-30T03:23:01;101676.00;;;10.80
16956;BMP180;8594;52.052;8.354;2024-01-30T03:25:28;101671.00;;;11.00
16956;BMP180;8594;52.052;8.354;2024-01-30T03:27:55;101676.00;;;11.00
16956;BMP180;8594;52.052;8.354;2024-01-30T03:30:23;101674.00;;;10.90
16956;BMP180;8594;52.052;8.354;2024-01-30T03:32:49;101666.00;;;10.80
16956;BMP180;8594;52.052;8.354;2024-01-30T03:35:18;101656.00;;;10.90
16956;BMP180;8594;52.052;8.354;2024-01-30T03:37:45;101660.00;;;10.80
16956;BMP180;8594;52.052;8.354;2024-01-30T03:40:13;101663.00;;;10.50
16956;BMP180;8594;52.052;8.354;2024-01-30T03:42:40;101665.00;;;10.60
16956;BMP180;8594;52.052;8.354;2024-01-30T03:45:08;101659.00;;;10.80
16956;BMP180;8594;52.052;8.354;2024-01-30T03:47:36;101657.00;;;10.80
16956;BMP180;8594;52.052;8.354;2024-01-30T03:50:04;101656.00;;;10.80
16956;BMP180;8594;52.052;8.354;2024-01-30T03:52:31;101657.00;;;10.60
16956;BMP180;8594;52.052;8.354;2024-01-30T03:54:58;101641.00;;;10.50
16956;BMP180;8594;52.052;8.354;2024-01-30T03:57:25;101643.00;;;10.70
16956;BMP180;8594;52.052;8.354;2024-01-30T03:59:52;101648.00;;;10.70
16956;BMP180;8594;52.052;8.354;2024-01-30T04:02:19;101641.00;;;10.80
16956;BMP180;8594;52.052;8.354;2024-01-30T04:04:47;101641.00;;;10.80
16956;BMP180;8594;52.052;8.354;2024-01-30T04:07:13;101633.00;;;10.80
16956;BMP180;8594;52.052;8.354;2024-01-30T04:09:40;101637.00;;;10.60
16956;BMP180;8594;52.052;8.354;2024-01-30T04:12:07;101636.00;;;10.40
16956;BMP180;8594;52.052;8.354;2024-01-30T04:14:34;101628.00;;;10.40
16956;BMP180;8594;52.052;8.354;2024-01-30T04:17:01;101641.00;;;10.60
16956;BMP180;8594;52.052;8.354;2024-01-30T04:19:27;101639.00;;;10.50
16956;BMP180;8594;52.052;8.354;2024-01-30T04:21:55;101633.00;;;10.50
16956;BMP180;8594;52.052;8.354;2024-01-30T04:24:21;101636.00;;;10.70
16956;BMP180;8594;52.052;8.354;2024-01-30T04:26:48;101628.00;;;10.90
16956;BMP180;8594;52.052;8.354;2024-01-30T04:29:14;101630.00;;;10.80
16956;BMP180;8594;52.052;8.354;2024-01-30T04:31:41;101634.00;;;10.60
16956;BMP180;8594;52.052;8.354;2024-01-30T04:34:08;101636.00;;;10.60
16956;BMP180;8594;52.052;8.354;2024-01-30T04:36:34;101638.00;;;10.90
16956;BMP180;8594;52.052;8.354;2024-01-30T04:39:03;101641.00;;;10.70
16956;BMP180;8594;52.052;8.354;2024-01-30T04:41:29;101637.00;;;10.60
16956;BMP180;8594;52.052;8.354;2024-01-30T04:43:57;101639.00;;;10.70
16956;BMP180;8594;52.052;8.354;2024-01-30T04:46:24;101639.00;;;10.80
16956;BMP180;8594;52.052;8.354;2024-01-30T04:48:50;101630.00;;;11.00
16956;BMP180;8594;52.052;8.354;2024-01-30T04:51:17;101625.00;;;10.80
16956;BMP180;8594;52.052;8.354;2024-01-30T04:53:44;101639.00;;;10.80
16956;BMP180;8594;52.052;8.354;2024-01-30T04:56:12;101634.00;;;10.90
16956;BMP180;8594;52.052;8.354;2024-01-30T04:58:39;101629.00;;;11.10
16956;BMP180;8594;52.052;8.354;2024-01-30T05:01:05;101634.00;;;11.20
16956;BMP180;8594;52.052;8.354;2024-01-30T05:03:33;101633.00;;;11.20
16956;BMP180;8594;52.052;8.354;2024-01-30T05:06:00;101635.00;;;11.30
16956;BMP180;8594;52.052;8.354;2024-01-30T05:08:28;101636.00;;;10.80
16956;BMP180;8594;52.052;8.354;2024-01-30T05:10:55;101628.00;;;10.80
16956;BMP180;8594;52.052;8.354;2024-01-30T05:13:23;101621.00;;;10.80
16956;BMP180;8594;52.052;8.354;2024-01-30T05:15:49;101633.00;;;10.80
16956;BMP180;8594;52.052;8.354;2024-01-30T05:18:16;101623.00;;;10.80
16956;BMP180;8594;52.052;8.354;2024-01-30T05:20:43;101620.00;;;10.50
16956;BMP180;8594;52.052;8.354;2024-01-30T05:23:10;101630.00;;;10.60
16956;BMP180;8594;52.052;8.354;2024-01-30T05:25:36;101622.00;;;10.60
16956;BMP180;8594;52.052;8.354;2024-01-30T05:28:04;101629.00;;;10.80
16956;BMP180;8594;52.052;8.354;2024-01-30T05:30:32;101628.00;;;10.70
16956;BMP180;8594;52.052;8.354;2024-01-30T05:32:59;101620.00;;;10.70
16956;BMP180;8594;52.052;8.354;2024-01-30T05:35:25;101619.00;;;10.60
16956;BMP180;8594;52.052;8.354;2024-01-30T05:37:52;101621.00;;;10.40
16956;BMP180;8594;52.052;8.354;2024-01-30T05:40:19;101624.00;;;10.50
16956;BMP180;8594;52.052;8.354;2024-01-30T05:42:45;101626.00;;;10.70
16956;BMP180;8594;52.052;8.354;2024-01-30T05:45:11;101620.00;;;10.40
16956;BMP180;8594;52.052;8.354;2024-01-30T05:47:39;101619.00;;;10.50
16956;BMP180;8594;52.052;8.354;2024-01-30T05:50:07;101616.00;;;10.40
16956;BMP180;8594;52.052;8.354;2024-01-30T05:52:34;101603.00;;;10.40
16956;BMP180;8594;52.052;8.354;2024-01-30T05:55:01;101613.00;;;10.30
16956;BMP180;8594;52.052;8.354;2024-01-30T05:57:28;101607.00;;;10.20
16956;BMP180;8594;52.052;8.354;2024-01-30T05:59:54;101606.00;;;10.40
16956;BMP180;8594;52.052;8.354;2024-01-30T06:02:21;101616.00;;;10.60
16956;BMP180;8594;52.052;8.354;2024-01-30T06:04:49;101612.00;;;10.70
16956;BMP180;8594;52.052;8.354;2024-01-30T06:07:16;101608.00;;;10.40
16956;BMP180;8594;52.052;8.354;2024-01-30T06:09:43;101620.00;;;10.80
16956;BMP180;8594;52.052;8.354;2024-01-30T06:12:11;101616.00;;;10.40
16956;BMP180;8594;52.052;8.354;2024-01-30T06:14:38;101614.00;;;10.60
16956;BMP180;8594;52.052;8.354;2024-01-30T06:17:05;101612.00;;;10.60
16956;BMP180;8594;52.052;8.354;2024-01-30T06:19:32;101602.00;;;10.70
16956;BMP180;8594;52.052;8.354;2024-01-30T06:22:00;101604.00;;;10.60
16956;BMP180;8594;52.052;8.354;2024-01-30T06:24:27;101603.00;;;10.70
16956;BMP180;8594;52.052;8.354;2024-01-30T06:26:54;101601.00;;;10.50
16956;BMP180;8594;52.052;8.354;2024-01-30T06:29:20;101609.00;;;10.70
16956;BMP180;8594;52.052;8.354;2024-01-30T06:31:47;101616.00;;;10.70
16956;BMP180;8594;52.052;8.354;2024-01-30T06:34:14;101609.00;;;10.80
16956;BMP180;8594;52.052;8.354;2024-01-30T06:36:41;101616.00;;;10.70
16956;BMP180;8594;52.052;8.354;2024-01-30T06:39:09;101608.00;;;10.70
16956;BMP180;8594;52.052;8.354;2024-01-30T06:41:35;101612.00;;;10.90
16956;BMP180;8594;52.052;8.354;2024-01-30T06:44:03;101618.00;;;11.00
16956;BMP180;8594;52.052;8.354;2024-01-30T06:46:31;101612.00;;;11.00
16956;BMP180;8594;52.052;8.354;2024-01-30T06:48:58;101622.00;;;10.90
16956;BMP180;8594;52.052;8.354;2024-01-30T06:51:25;101613.00;;;10.70
16956;BMP180;8594;52.052;8.354;2024-01-30T06:53:52;101605.00;;;10.90
16956;BMP180;8594;52.052;8.354;2024-01-30T06:56:20;101604.00;;;10.80
16956;BMP180;8594;52.052;8.354;2024-01-30T06:58:47;101607.00;;;10.90
16956;BMP180;8594;52.052;8.354;2024-01-30T07:01:14;101605.00;;;10.90
16956;BMP180;8594;52.052;8.354;2024-01-30T07:03:41;101609.00;;;10.90
16956;BMP180;8594;52.052;8.354;2024-01-30T07:06:08;101605.00;;;10.80
16956;BMP180;8594;52.052;8.354;2024-01-30T07:08:36;101613.00;;;10.80
16956;BMP180;8594;52.052;8.354;2024-01-30T07:11:04;101606.00;;;11.00
16956;BMP180;8594;52.052;8.354;2024-01-30T07:13:34;101614.00;;;11.10
16956;BMP180;8594;52.052;8.354;2024-01-30T07:16:00;101618.00;;;11.30
16956;BMP180;8594;52.052;8.354;2024-01-30T07:18:27;101613.00;;;11.00
16956;BMP180;8594;52.052;8.354;2024-01-30T07:20:54;101613.00;;;10.80
16956;BMP180;8594;52.052;8.354;2024-01-30T07:23:21;101616.00;;;10.80
16956;BMP180;8594;52.052;8.354;2024-01-30T07:25:48;101613.00;;;10.90
16956;BMP180;8594;52.052;8.354;2024-01-30T07:28:15;101617.00;;;11.00
16956;BMP180;8594;52.052;8.354;2024-01-30T07:30:44;101615.00;;;11.00
16956;BMP180;8594;52.052;8.354;2024-01-30T07:33:11;101614.00;;;11.20
16956;BMP180;8594;52.052;8.354;2024-01-30T07:35:38;101616.00;;;11.50
16956;BMP180;8594;52.052;8.354;2024-01-30T07:38:04;101613.00;;;11.50
16956;BMP180;8594;52.052;8.354;2024-01-30T07:40:31;101614.00;;;11.40
16956;BMP180;8594;52.052;8.354;2024-01-30T07:42:59;101612.00;;;11.20
16956;BMP180;8594;52.052;8.354;2024-01-30T07:45:26;101608.00;;;11.30
16956;BMP180;8594;52.052;8.354;2024-01-30T07:47:59;101618.00;;;11.50
16956;BMP180;8594;52.052;8.354;2024-01-30T07:50:26;101613.00;;;11.40
16956;BMP180;8594;52.052;8.354;2024-01-30T07:52:53;101621.00;;;11.40
16956;BMP180;8594;52.052;8.354;2024-01-30T07:55:20;101618.00;;;11.40
16956;BMP180;8594;52.052;8.354;2024-01-30T07:57:50;101621.00;;;11.30
16956;BMP180;8594;52.052;8.354;2024-01-30T08:00:19;101616.00;;;11.20
16956;BMP180;8594;52.052;8.354;2024-01-30T08:02:46;101615.00;;;11.30
16956;BMP180;8594;52.052;8.354;2024-01-30T08:05:14;101619.00;;;11.60
16956;BMP180;8594;52.052;8.354;2024-01-30T08:07:41;101612.00;;;11.90
16956;BMP180;8594;52.052;8.354;2024-01-30T08:10:09;101613.00;;;11.80
16956;BMP180;8594;52.052;8.354;2024-01-30T08:12:36;101620.00;;;11.80
16956;BMP180;8594;52.052;8.354;2024-01-30T08:15:04;101613.00;;;11.70
16956;BMP180;8594;52.052;8.354;2024-01-30T08:17:31;101620.00;;;11.50
16956;BMP180;8594;52.052;8.354;2024-01-30T08:19:58;101613.00;;;11.70
16956;BMP180;8594;52.052;8.354;2024-01-30T08:22:26;101615.00;;;11.60
16956;BMP180;8594;52.052;8.354;2024-01-30T08:24:53;101626.00;;;11.70
16956;BMP180;8594;52.052;8.354;2024-01-30T08:27:20;101626.00;;;12.00
16956;BMP180;8594;52.052;8.354;2024-01-30T08:29:47;101633.00;;;12.10
16956;BMP180;8594;52.052;8.354;2024-01-30T08:32:13;101635.00;;;12.30
16956;BMP180;8594;52.052;8.354;2024-01-30T08:34:40;101641.00;;;12.50
16956;BMP180;8594;52.052;8.354;2024-01-30T08:37:07;101632.00;;;12.40
16956;BMP180;8594;52.052;8.354;2024-01-30T08:39:35;101636.00;;;12.60
16956;BMP180;8594;52.052;8.354;2024-01-30T08:42:02;101634.00;;;12.80
16956;BMP180;8594;52.052;8.354;2024-01-30T08:44:29;101630.00;;;12.80
16956;BMP180;8594;52.052;8.354;2024-01-30T08:46:56;101636.00;;;12.90
16956;BMP180;8594;52.052;8.354;2024-01-30T08:49:22;101636.00;;;12.80
16956;BMP180;8594;52.052;8.354;2024-01-30T08:51:49;101625.00;;;12.90
16956;BMP180;8594;52.052;8.354;2024-01-30T08:54:16;101633.00;;;12.70
16956;BMP180;8594;52.052;8.354;2024-01-30T08:56:45;101630.00;;;12.50
16956;BMP180;8594;52.052;8.354;2024-01-30T08:59:12;101630.00;;;13.10
16956;BMP180;8594;52.052;8.354;2024-01-30T09:01:38;101629.00;;;13.10
16956;BMP180;8594;52.052;8.354;2024-01-30T09:04:05;101637.00;;;13.40
16956;BMP180;8594;52.052;8.354;2024-01-30T09:06:32;101643.00;;;13.40
16956;BMP180;8594;52.052;8.354;2024-01-30T09:08:59;101641.00;;;13.50
16956;BMP180;8594;52.052;8.354;2024-01-30T09:11:25;101642.00;;;13.70
16956;BMP180;8594;52.052;8.354;2024-01-30T09:13:53;101637.00;;;13.80
16956;BMP180;8594;52.052;8.354;2024-01-30T09:16:20;101645.00;;;13.80
16956;BMP180;8594;52.052;8.354;2024-01-30T09:18:47;101638.00;;;14.00
16956;BMP180;8594;52.052;8.354;2024-01-30T09:21:13;101646.00;;;14.30
16956;BMP180;8594;52.052;8.354;2024-01-30T09:23:40;101642.00;;;14.30
16956;BMP180;8594;52.052;8.354;2024-01-30T09:26:07;101641.00;;;14.70
16956;BMP180;8594;52.052;8.354;2024-01-30T09:28:34;101644.00;;;14.50
16956;BMP180;8594;52.052;8.354;2024-01-30T09:31:02;101639.00;;;14.30
16956;BMP180;8594;52.052;8.354;2024-01-30T09:33:29;101646.00;;;14.50
16956;BMP180;8594;52.052;8.354;2024-01-30T09:35:56;101642.00;;;14.30
16956;BMP180;8594;52.052;8.354;2024-01-30T09:38:23;101642.00;;;14.20
16956;BMP180;8594;52.052;8.354;2024-01-30T09:40:54;101645.00;;;14.20
16956;BMP180;8594;52.052;8.354;2024-01-30T09:43:23;101642.00;;;14.00
16956;BMP180;8594;52.052;8.354;2024-01-30T09:45:50;101637.00;;;14.00
16956;BMP180;8594;52.052;8.354;2024-01-30T09:48:19;101640.00;;;14.00
16956;BMP180;8594;52.052;8.354;2024-01-30T09:50:46;101643.00;;;14.10
16956;BMP180;8594;52.052;8.354;2024-01-30T09:53:14;101643.00;;;14.10
16956;BMP180;8594;52.052;8.354;2024-01-30T09:55:43;101644.00;;;14.20
16956;BMP180;8594;52.052;8.354;2024-01-30T09:58:11;101644.00;;;14.10
16956;BMP180;8594;52.052;8.354;2024-01-30T10:00:38;101647.00;;;14.30
16956;BMP180;8594;52.052;8.354;2024-01-30T10:03:05;101647.00;;;14.30
16956;BMP180;8594;52.052;8.354;2024-01-30T10:05:35;101651.00;;;14.50
16956;BMP180;8594;52.052;8.354;2024-01-30T10:08:06;101651.00;;;14.50
16956;BMP180;8594;52.052;8.354;2024-01-30T10:10:34;101646.00;;;14.30
16956;BMP180;8594;52.052;8.354;2024-01-30T10:13:01;101645.00;;;14.30
16956;BMP180;8594;52.052;8.354;2024-01-30T10:15:28;101645.00;;;14.50
16956;BMP180;8594;52.052;8.354;2024-01-30T10:17:55;101651.00;;;15.00
16956;BMP180;8594;52.052;8.354;2024-01-30T10:20:24;101652.00;;;15.10
16956;BMP180;8594;52.052;8.354;2024-01-30T10:22:52;101654.00;;;15.30
16956;BMP180;8594;52.052;8.354;2024-01-30T10:25:21;101656.00;;;15.30
16956;BMP180;8594;52.052;8.354;2024-01-30T10:27:52;101656.00;;;15.60
16956;BMP180;8594;52.052;8.354;2024-01-30T10:30:20;101657.00;;;16.00
16956;BMP180;8594;52.052;8.354;2024-01-30T10:32:47;101657.00;;;15.60
16956;BMP180;8594;52.052;8.354;2024-01-30T10:35:14;101648.00;;;16.30
16956;BMP180;8594;52.052;8.354;2024-01-30T10:37:44;101654.00;;;16.30
16956;BMP180;8594;52.052;8.354;2024-01-30T10:40:15;101657.00;;;16.70
16956;BMP180;8594;52.052;8.354;2024-01-30T10:42:44;101658.00;;;16.80
16956;BMP180;8594;52.052;8.354;2024-01-30T10:45:13;101651.00;;;16.60
16956;BMP180;8594;52.052;8.354;2024-01-30T10:47:48;101650.00;;;16.90
16956;BMP180;8594;52.052;8.354;2024-01-30T10:50:15;101648.00;;;16.40
16956;BMP180;8594;52.052;8.354;2024-01-30T10:52:42;101641.00;;;16.40
16956;BMP180;8594;52.052;8.354;2024-01-30T10:55:10;101638.00;;;16.30
16956;BMP180;8594;52.052;8.354;2024-01-30T10:57:39;101632.00;;;16.60
16956;BMP180;8594;52.052;8.354;2024-01-30T11:00:08;101632.00;;;16.80
16956;BMP180;8594;52.052;8.354;2024-01-30T11:02:38;101637.00;;;16.70
16956;BMP180;8594;52.052;8.354;2024-01-30T11:05:06;101631.00;;;16.80
16956;BMP180;8594;52.052;8.354;2024-01-30T11:07:34;101632.00;;;16.50
16956;BMP180;8594;52.052;8.354;2024-01-30T11:10:02;101626.00;;;16.40
16956;BMP180;8594;52.052;8.354;2024-01-30T11:12:31;101631.00;;;15.70
16956;BMP180;8594;52.052;8.354;2024-01-30T11:15:06;101641.00;;;16.00
16956;BMP180;8594;52.052;8.354;2024-01-30T11:17:42;101641.00;;;16.30
16956;BMP180;8594;52.052;8.354;2024-01-30T11:20:15;101635.00;;;15.80
16956;BMP180;8594;52.052;8.354;2024-01-30T11:22:44;101642.00;;;15.60
16956;BMP180;8594;52.052;8.354;2024-01-30T11:25:13;101644.00;;;15.90
16956;BMP180;8594;52.052;8.354;2024-01-30T11:27:41;101643.00;;;15.90
16956;BMP180;8594;52.052;8.354;2024-01-30T11:30:11;101643.00;;;15.70
16956;BMP180;8594;52.052;8.354;2024-01-30T11:32:37;101640.00;;;15.60
16956;BMP180;8594;52.052;8.354;2024-01-30T11:35:05;101638.00;;;15.70
16956;BMP180;8594;52.052;8.354;2024-01-30T11:37:37;101636.00;;;15.90
16956;BMP180;8594;52.052;8.354;2024-01-30T11:40:06;101632.00;;;16.00
16956;BMP180;8594;52.052;8.354;2024-01-30T11:42:36;101637.00;;;16.00
16956;BMP180;8594;52.052;8.354;2024-01-30T11:45:05;101627.00;;;15.90
16956;BMP180;8594;52.052;8.354;2024-01-30T11:47:35;101631.00;;;16.10
16956;BMP180;8594;52.052;8.354;2024-01-30T11:50:03;101630.00;;;16.10
16956;BMP180;8594;52.052;8.354;2024-01-30T11:52:32;101628.00;;;15.80
16956;BMP180;8594;52.052;8.354;2024-01-30T11:55:00;101633.00;;;16.10
16956;BMP180;8594;52.052;8.354;2024-01-30T11:57:27;101629.00;;;16.10
16956;BMP180;8594;52.052;8.354;2024-01-30T11:59:53;101637.00;;;16.10
16956;BMP180;8594;52.052;8.354;2024-01-30T12:02:20;101633.00;;;16.20
16956;BMP180;8594;52.052;8.354;2024-01-30T12:04:49;101646.00;;;16.10
16956;BMP180;8594;52.052;8.354;2024-01-30T12:07:15;101638.00;;;16.00
16956;BMP180;8594;52.052;8.354;2024-01-30T12:09:42;101636.00;;;16.00
16956;BMP180;8594;52.052;8.354;2024-01-30T12:19:31;101641.00;;;16.00
16956;BMP180;8594;52.052;8.354;2024-01-30T12:21:59;101640.00;;;16.00
16956;BMP180;8594;52.052;8.354;2024-01-30T12:24:26;101642.00;;;15.90
16956;BMP180;8594;52.052;8.354;2024-01-30T12:26:57;101644.00;;;15.50
16956;BMP180;8594;52.052;8.354;2024-01-30T12:29:24;101639.00;;;15.70
16956;BMP180;8594;52.052;8.354;2024-01-30T12:31:53;101645.00;;;15.70
16956;BMP180;8594;52.052;8.354;2024-01-30T12:34:20;101641.00;;;15.60
16956;BMP180;8594;52.052;8.354;2024-01-30T12:36:47;101643.00;;;15.70
16956;BMP180;8594;52.052;8.354;2024-01-30T12:39:15;101641.00;;;15.70
16956;BMP180;8594;52.052;8.354;2024-01-30T12:41:42;101642.00;;;15.80
16956;BMP180;8594;52.052;8.354;2024-01-30T12:44:09;101650.00;;;15.90
16956;BMP180;8594;52.052;8.354;2024-01-30T12:46:36;101637.00;;;15.70
16956;BMP180;8594;52.052;8.354;2024-01-30T12:49:03;101642.00;;;15.80
16956;BMP180;8594;52.052;8.354;2024-01-30T12:51:29;101642.00;;;16.00
16956;BMP180;8594;52.052;8.354;2024-01-30T12:53:56;101643.00;;;16.00
16956;BMP180;8594;52.052;8.354;2024-01-30T12:56:24;101640.00;;;16.10
16956;BMP180;8594;52.052;8.354;2024-01-30T12:58:51;101633.00;;;15.90
16956;BMP180;8594;52.052;8.354;2024-01-30T13:01:18;101638.00;;;15.60
16956;BMP180;8594;52.052;8.354;2024-01-30T13:03:45;101638.00;;;15.60
16956;BMP180;8594;52.052;8.354;2024-01-30T13:06:12;101640.00;;;15.70
16956;BMP180;8594;52.052;8.354;2024-01-30T13:08:39;101641.00;;;15.90
16956;BMP180;8594;52.052;8.354;2024-01-30T13:11:05;101643.00;;;15.30
16956;BMP180;8594;52.052;8.354;2024-01-30T13:13:33;101635.00;;;15.30
16956;BMP180;8594;52.052;8.354;2024-01-30T13:16:01;101641.00;;;15.80
16956;BMP180;8594;52.052;8.354;2024-01-30T13:18:28;101644.00;;;15.70
16956;BMP180;8594;52.052;8.354;2024-01-30T13:20:54;101643.00;;;15.60
16956;BMP180;8594;52.052;8.354;2024-01-30T13:23:21;101640.00;;;15.70
16956;BMP180;8594;52.052;8.354;2024-01-30T13:25:48;101634.00;;;15.70
16956;BMP180;8594;52.052;8.354;2024-01-30T13:28:15;101636.00;;;15.70
16956;BMP180;8594;52.052;8.354;2024-01-30T13:30:43;101638.00;;;15.70
16956;BMP180;8594;52.052;8.354;2024-01-30T13:33:09;101639.00;;;15.70
16956;BMP180;8594;52.052;8.354;2024-01-30T13:35:36;101627.00;;;15.50
16956;BMP180;8594;52.052;8.354;2024-01-30T13:38:03;101629.00;;;15.30
16956;BMP180;8594;52.052;8.354;2024-01-30T13:40:30;101621.00;;;15.00
16956;BMP180;8594;52.052;8.354;2024-01-30T13:42:57;101624.00;;;15.20
16956;BMP180;8594;52.052;8.354;2024-01-30T13:45:24;101632.00;;;15.60
16956;BMP180;8594;52.052;8.354;2024-01-30T13:47:52;101633.00;;;15.40
16956;BMP180;8594;52.052;8.354;2024-01-30T13:50:18;101634.00;;;15.20
16956;BMP180;8594;52.052;8.354;2024-01-30T13:52:45;101629.00;;;15.30
16956;BMP180;8594;52.052;8.354;2024-01-30T13:55:12;101629.00;;;15.20
16956;BMP180;8594;52.052;8.354;2024-01-30T13:57:39;101630.00;;;15.30
16956;BMP180;8594;52.052;8.354;2024-01-30T14:00:08;101629.00;;;15.60
16956;BMP180;8594;52.052;8.354;2024-01-30T14:02:35;101627.00;;;15.50
16956;BMP180;8594;52.052;8.354;2024-01-30T14:05:03;101637.00;;;15.40
16956;BMP180;8594;52.052;8.354;2024-01-30T14:07:31;101646.00;;;15.30
16956;BMP180;8594;52.052;8.354;2024-01-30T14:09:58;101648.00;;;15.50
16956;BMP180;8594;52.052;8.354;2024-01-30T14:12:25;101650.00;;;15.40
16956;BMP180;8594;52.052;8.354;2024-01-30T14:14:51;101641.00;;;15.10
16956;BMP180;8594;52.052;8.354;2024-01-30T14:17:18;101643.00;;;15.40